PWSweather.com
Personal Weather Stations
Station Observations
KFLMIRAM3
Island Dr. Area, Miramar, FL 33023

Island Dr. AreaMiramar, FL 33023

Lat: 25.99, Lon: -80.24

Elevation: 8

Station Type: Davis Instruments Pro2 Plus

http://home.bellsouth.net/p/pwp-poobala

Latest ConditionsUpdated 9:30:22 AM EDT Sunday, Aug 19, 2018
Currently Today's Max Today's Min Today's Average
Temperature 87.1°F30.6°C 87.3°F30.7°C 76.6°F24.8°C 78.7°F25.9°C
Dew Point 80.6°F27.0°C 81.4°F27.4°C 74.6°F23.7°C 76.7°F24.8°C
Winds Calm Calm 10.0 mph -16.1 kmh - - 0.5 mph 0.8 kmh
Wind Gusts 7.0 mph11.3 kmh 13.0 mph20.9 kmh - -
Humidity 81% 98% 80% 94%
Pressure 30.04 in1017.3 mb 30.07 in1018.3 mb 29.99 in1015.6 mb -
Hour Temp Dew Point Humidity Winds Wind Gusts Pressure Precip Precip Rate Daily Precip Total
09:30 AM 87.1°F30.6°C 80.6°F27.0°C 81% Calm Calm 7.0 mph11.3 kmh 30.04 in1017.3 mb 0.00 in0.0 mm 0.00 in0.0 mm 0.58 in14.7 mm
09:25 AM 87.3°F30.7°C 80.4°F26.9°C 80% 3.0 mph WSW4.8 kmh WSW 7.0 mph11.3 kmh 30.04 in1017.3 mb 0.00 in0.0 mm 0.00 in0.0 mm 0.58 in14.7 mm
09:20 AM 87.3°F30.7°C 81.1°F27.3°C 82% 2.0 mph SW3.2 kmh SW 7.0 mph11.3 kmh 30.04 in1017.3 mb 0.00 in0.0 mm 0.00 in0.0 mm 0.58 in14.7 mm
09:15 AM 86.8°F30.4°C 81.4°F27.4°C 84% 3.0 mph N4.8 kmh N 7.0 mph11.3 kmh 30.04 in1017.3 mb 0.00 in0.0 mm 0.00 in0.0 mm 0.58 in14.7 mm
09:10 AM 86.6°F30.3°C 80.8°F27.1°C 83% 2.0 mph N3.2 kmh N 6.0 mph9.7 kmh 30.04 in1017.3 mb 0.00 in0.0 mm 0.00 in0.0 mm 0.58 in14.7 mm
09:00 AM 85.4°F29.7°C 80.7°F27.1°C 86% 2.0 mph SSE3.2 kmh SSE 7.0 mph11.3 kmh 30.03 in1016.9 mb 0.00 in0.0 mm 0.00 in0.0 mm 0.58 in14.7 mm
08:55 AM 84.9°F29.4°C 80.6°F27.0°C 87% 3.0 mph N4.8 kmh N 7.0 mph11.3 kmh 30.03 in1016.9 mb 0.00 in0.0 mm 0.00 in0.0 mm 0.58 in14.7 mm
08:50 AM 84.3°F29.1°C 80.4°F26.9°C 88% Calm Calm 6.0 mph9.7 kmh 30.03 in1016.9 mb 0.00 in0.0 mm 0.00 in0.0 mm 0.58 in14.7 mm
08:45 AM 83.6°F28.7°C 80.0°F26.7°C 89% 3.0 mph SE4.8 kmh SE 6.0 mph9.7 kmh 30.03 in1016.9 mb 0.00 in0.0 mm 0.00 in0.0 mm 0.58 in14.7 mm
08:40 AM 83.0°F28.3°C 80.1°F26.7°C 91% Calm Calm 4.0 mph6.4 kmh 30.03 in1016.9 mb 0.00 in0.0 mm 0.00 in0.0 mm 0.58 in14.7 mm
08:30 AM 81.6°F27.6°C 79.7°F26.5°C 94% Calm Calm 3.0 mph4.8 kmh 30.03 in1016.9 mb 0.00 in0.0 mm 0.00 in0.0 mm 0.58 in14.7 mm
08:25 AM 81.1°F27.3°C 79.9°F26.6°C 96% Calm Calm -- 30.03 in1016.9 mb 0.00 in0.0 mm 0.00 in0.0 mm 0.58 in14.7 mm
08:20 AM 80.5°F26.9°C 79.6°F26.4°C 97% Calm Calm 1.0 mph1.6 kmh 30.03 in1016.9 mb 0.00 in0.0 mm 0.00 in0.0 mm 0.58 in14.7 mm
08:15 AM 79.9°F26.6°C 79.0°F26.1°C 97% Calm Calm -- 30.03 in1016.9 mb 0.00 in0.0 mm 0.00 in0.0 mm 0.58 in14.7 mm
08:10 AM 79.5°F26.4°C 78.9°F26.1°C 98% Calm Calm -- 30.03 in1016.9 mb 0.00 in0.0 mm 0.00 in0.0 mm 0.58 in14.7 mm
08:00 AM 79.0°F26.1°C 78.1°F25.6°C 97% Calm Calm -- 30.02 in1016.6 mb 0.00 in0.0 mm 0.00 in0.0 mm 0.58 in14.7 mm
07:55 AM 78.8°F26.0°C 77.9°F25.5°C 97% Calm Calm -- 30.02 in1016.6 mb 0.00 in0.0 mm 0.00 in0.0 mm 0.58 in14.7 mm
07:50 AM 78.7°F25.9°C 77.8°F25.4°C 97% Calm Calm -- 30.02 in1016.6 mb 0.00 in0.0 mm 0.00 in0.0 mm 0.58 in14.7 mm
07:45 AM 78.5°F25.8°C 77.6°F25.3°C 97% Calm Calm -- 30.02 in1016.6 mb 0.00 in0.0 mm 0.00 in0.0 mm 0.58 in14.7 mm
07:40 AM 78.2°F25.7°C 77.3°F25.2°C 97% Calm Calm -- 30.01 in1016.3 mb 0.00 in0.0 mm 0.00 in0.0 mm 0.58 in14.7 mm
07:30 AM 77.6°F25.3°C 76.7°F24.8°C 97% Calm Calm -- 30.02 in1016.6 mb 0.00 in0.0 mm 0.00 in0.0 mm 0.58 in14.7 mm
07:25 AM 77.5°F25.3°C 76.6°F24.8°C 97% Calm Calm -- 30.01 in1016.3 mb 0.00 in0.0 mm 0.00 in0.0 mm 0.58 in14.7 mm
07:20 AM 77.5°F25.3°C 76.6°F24.8°C 97% Calm Calm -- 30.01 in1016.3 mb 0.00 in0.0 mm 0.00 in0.0 mm 0.58 in14.7 mm
07:15 AM 77.4°F25.2°C 76.5°F24.7°C 97% Calm Calm -- 30.00 in1015.9 mb 0.00 in0.0 mm 0.00 in0.0 mm 0.58 in14.7 mm
07:10 AM 77.5°F25.3°C 76.6°F24.8°C 97% Calm Calm -- 30.01 in1016.3 mb 0.00 in0.0 mm 0.00 in0.0 mm 0.58 in14.7 mm
07:00 AM 77.5°F25.3°C 76.6°F24.8°C 97% Calm Calm -- 30.01 in1016.3 mb 0.00 in0.0 mm 0.00 in0.0 mm 0.58 in14.7 mm
06:55 AM 77.6°F25.3°C 76.7°F24.8°C 97% Calm Calm -- 30.01 in1016.3 mb 0.00 in0.0 mm 0.00 in0.0 mm 0.58 in14.7 mm
06:50 AM 77.6°F25.3°C 76.7°F24.8°C 97% Calm Calm -- 30.00 in1015.9 mb 0.00 in0.0 mm 0.00 in0.0 mm 0.58 in14.7 mm
06:45 AM 77.7°F25.4°C 76.8°F24.9°C 97% Calm Calm -- 30.00 in1015.9 mb 0.00 in0.0 mm 0.00 in0.0 mm 0.58 in14.7 mm
06:40 AM 77.7°F25.4°C 76.8°F24.9°C 97% Calm Calm -- 30.00 in1015.9 mb 0.00 in0.0 mm 0.00 in0.0 mm 0.58 in14.7 mm
06:30 AM 77.8°F25.4°C 76.9°F24.9°C 97% Calm Calm -- 30.00 in1015.9 mb 0.00 in0.0 mm 0.00 in0.0 mm 0.58 in14.7 mm
06:25 AM 77.8°F25.4°C 76.9°F24.9°C 97% Calm Calm -- 30.00 in1015.9 mb 0.00 in0.0 mm 0.00 in0.0 mm 0.58 in14.7 mm
06:20 AM 77.7°F25.4°C 76.8°F24.9°C 97% Calm Calm -- 30.00 in1015.9 mb 0.00 in0.0 mm 0.00 in0.0 mm 0.58 in14.7 mm
06:15 AM 77.8°F25.4°C 76.9°F24.9°C 97% Calm Calm -- 29.99 in1015.6 mb 0.00 in0.0 mm 0.00 in0.0 mm 0.58 in14.7 mm
06:10 AM 77.7°F25.4°C 76.8°F24.9°C 97% Calm Calm -- 29.99 in1015.6 mb 0.00 in0.0 mm 0.00 in0.0 mm 0.58 in14.7 mm
06:00 AM 77.8°F25.4°C 76.9°F24.9°C 97% Calm Calm -- 29.99 in1015.6 mb 0.00 in0.0 mm 0.00 in0.0 mm 0.58 in14.7 mm
05:55 AM 77.9°F25.5°C 77.0°F25.0°C 97% Calm Calm -- 29.99 in1015.6 mb 0.00 in0.0 mm 0.00 in0.0 mm 0.58 in14.7 mm
05:50 AM 77.8°F25.4°C 76.9°F24.9°C 97% Calm Calm -- 29.99 in1015.6 mb 0.00 in0.0 mm 0.00 in0.0 mm 0.58 in14.7 mm
05:45 AM 77.8°F25.4°C 76.9°F24.9°C 97% Calm Calm -- 29.99 in1015.6 mb 0.00 in0.0 mm 0.00 in0.0 mm 0.58 in14.7 mm
05:40 AM 77.8°F25.4°C 76.9°F24.9°C 97% Calm Calm -- 29.99 in1015.6 mb 0.00 in0.0 mm 0.00 in0.0 mm 0.58 in14.7 mm
05:30 AM 77.7°F25.4°C 76.8°F24.9°C 97% Calm Calm -- 29.99 in1015.6 mb 0.00 in0.0 mm 0.00 in0.0 mm 0.58 in14.7 mm
05:25 AM 77.6°F25.3°C 76.7°F24.8°C 97% Calm Calm -- 29.99 in1015.6 mb 0.00 in0.0 mm 0.00 in0.0 mm 0.58 in14.7 mm
05:20 AM 77.5°F25.3°C 76.6°F24.8°C 97% Calm Calm -- 29.99 in1015.6 mb 0.00 in0.0 mm 0.00 in0.0 mm 0.58 in14.7 mm
05:15 AM 77.4°F25.2°C 76.5°F24.7°C 97% Calm Calm -- 29.99 in1015.6 mb 0.00 in0.0 mm 0.00 in0.0 mm 0.58 in14.7 mm
05:10 AM 77.4°F25.2°C 76.5°F24.7°C 97% Calm Calm -- 29.99 in1015.6 mb 0.00 in0.0 mm 0.00 in0.0 mm 0.58 in14.7 mm
05:00 AM 77.3°F25.2°C 76.1°F24.5°C 96% Calm Calm -- 29.99 in1015.6 mb 0.00 in0.0 mm 0.00 in0.0 mm 0.58 in14.7 mm
04:55 AM 77.2°F25.1°C 76.0°F24.4°C 96% Calm Calm -- 29.99 in1015.6 mb 0.00 in0.0 mm 0.00 in0.0 mm 0.58 in14.7 mm
04:50 AM 77.1°F25.1°C 75.9°F24.4°C 96% Calm Calm -- 29.99 in1015.6 mb 0.00 in0.0 mm 0.00 in0.0 mm 0.58 in14.7 mm
04:45 AM 77.0°F25.0°C 75.8°F24.3°C 96% Calm Calm -- 30.00 in1015.9 mb 0.00 in0.0 mm 0.00 in0.0 mm 0.58 in14.7 mm
04:40 AM 76.9°F24.9°C 75.7°F24.3°C 96% Calm Calm -- 29.99 in1015.6 mb 0.00 in0.0 mm 0.00 in0.0 mm 0.58 in14.7 mm
04:30 AM 76.9°F24.9°C 75.7°F24.3°C 96% Calm Calm -- 30.00 in1015.9 mb 0.00 in0.0 mm 0.00 in0.0 mm 0.58 in14.7 mm
04:25 AM 76.8°F24.9°C 75.6°F24.2°C 96% Calm Calm -- 30.00 in1015.9 mb 0.00 in0.0 mm 0.00 in0.0 mm 0.58 in14.7 mm
04:20 AM 76.8°F24.9°C 75.6°F24.2°C 96% Calm Calm -- 30.00 in1015.9 mb 0.00 in0.0 mm 0.00 in0.0 mm 0.58 in14.7 mm
04:15 AM 76.7°F24.8°C 75.5°F24.2°C 96% Calm Calm -- 30.00 in1015.9 mb 0.00 in0.0 mm 0.00 in0.0 mm 0.58 in14.7 mm
04:10 AM 76.7°F24.8°C 75.5°F24.2°C 96% Calm Calm -- 30.00 in1015.9 mb 0.00 in0.0 mm 0.00 in0.0 mm 0.58 in14.7 mm
04:00 AM 76.7°F24.8°C 75.5°F24.2°C 96% Calm Calm -- 30.00 in1015.9 mb 0.00 in0.0 mm 0.00 in0.0 mm 0.58 in14.7 mm
03:55 AM 76.7°F24.8°C 75.5°F24.2°C 96% Calm Calm -- 30.01 in1016.3 mb 0.00 in0.0 mm 0.00 in0.0 mm 0.58 in14.7 mm
03:50 AM 76.6°F24.8°C 75.4°F24.1°C 96% Calm Calm -- 30.01 in1016.3 mb 0.00 in0.0 mm 0.00 in0.0 mm 0.58 in14.7 mm
03:45 AM 76.7°F24.8°C 75.5°F24.2°C 96% Calm Calm -- 30.00 in1015.9 mb 0.00 in0.0 mm 0.00 in0.0 mm 0.58 in14.7 mm
03:40 AM 76.8°F24.9°C 75.6°F24.2°C 96% Calm Calm 4.0 mph6.4 kmh 30.00 in1015.9 mb 0.00 in0.0 mm 0.00 in0.0 mm 0.58 in14.7 mm
03:30 AM 77.0°F25.0°C 75.8°F24.3°C 96% Calm Calm -- 30.01 in1016.3 mb 0.00 in0.0 mm 0.00 in0.0 mm 0.58 in14.7 mm
03:25 AM 77.0°F25.0°C 75.8°F24.3°C 96% Calm Calm -- 30.01 in1016.3 mb 0.00 in0.0 mm 0.00 in0.0 mm 0.58 in14.7 mm
03:20 AM 77.0°F25.0°C 75.8°F24.3°C 96% Calm Calm -- 30.01 in1016.3 mb 0.00 in0.0 mm 0.00 in0.0 mm 0.58 in14.7 mm
03:15 AM 77.1°F25.1°C 75.9°F24.4°C 96% Calm Calm -- 30.01 in1016.3 mb 0.00 in0.0 mm 0.00 in0.0 mm 0.58 in14.7 mm
03:10 AM 77.2°F25.1°C 76.0°F24.4°C 96% Calm Calm 5.0 mph8.0 kmh 30.01 in1016.3 mb 0.00 in0.0 mm 0.00 in0.0 mm 0.58 in14.7 mm
03:00 AM 77.2°F25.1°C 75.7°F24.3°C 95% Calm Calm -- 30.01 in1016.3 mb 0.00 in0.0 mm 0.00 in0.0 mm 0.58 in14.7 mm
02:55 AM 77.3°F25.2°C 75.8°F24.3°C 95% Calm Calm -- 30.02 in1016.6 mb 0.00 in0.0 mm 0.00 in0.0 mm 0.58 in14.7 mm
02:50 AM 77.3°F25.2°C 75.8°F24.3°C 95% Calm Calm -- 30.02 in1016.6 mb 0.00 in0.0 mm 0.00 in0.0 mm 0.58 in14.7 mm
02:45 AM 77.3°F25.2°C 75.8°F24.3°C 95% Calm Calm -- 30.03 in1016.9 mb 0.00 in0.0 mm 0.00 in0.0 mm 0.58 in14.7 mm
02:40 AM 77.3°F25.2°C 75.8°F24.3°C 95% Calm Calm 3.0 mph4.8 kmh 30.03 in1016.9 mb 0.00 in0.0 mm 0.00 in0.0 mm 0.58 in14.7 mm
02:30 AM 77.3°F25.2°C 75.8°F24.3°C 95% 2.0 mph WSW3.2 kmh WSW 4.0 mph6.4 kmh 30.03 in1016.9 mb 0.00 in0.0 mm 0.00 in0.0 mm 0.58 in14.7 mm
02:25 AM 77.3°F25.2°C 75.8°F24.3°C 95% Calm Calm 4.0 mph6.4 kmh 30.03 in1016.9 mb 0.00 in0.0 mm 0.00 in0.0 mm 0.58 in14.7 mm
02:20 AM 77.2°F25.1°C 75.7°F24.3°C 95% Calm Calm -- 30.03 in1016.9 mb 0.00 in0.0 mm 0.00 in0.0 mm 0.58 in14.7 mm
02:15 AM 77.1°F25.1°C 75.6°F24.2°C 95% Calm Calm -- 30.03 in1016.9 mb 0.00 in0.0 mm 0.00 in0.0 mm 0.58 in14.7 mm
02:10 AM 77.1°F25.1°C 75.6°F24.2°C 95% Calm Calm -- 30.03 in1016.9 mb 0.00 in0.0 mm 0.00 in0.0 mm 0.58 in14.7 mm
02:00 AM 77.0°F25.0°C 75.5°F24.2°C 95% Calm Calm -- 30.02 in1016.6 mb 0.00 in0.0 mm 0.00 in0.0 mm 0.58 in14.7 mm
01:55 AM 77.0°F25.0°C 75.1°F23.9°C 94% Calm Calm -- 30.02 in1016.6 mb 0.00 in0.0 mm 0.00 in0.0 mm 0.58 in14.7 mm
01:50 AM 77.0°F25.0°C 75.1°F23.9°C 94% Calm Calm -- 30.02 in1016.6 mb 0.00 in0.0 mm 0.00 in0.0 mm 0.58 in14.7 mm
01:45 AM 77.1°F25.1°C 75.2°F24.0°C 94% Calm Calm -- 30.03 in1016.9 mb 0.00 in0.0 mm 0.00 in0.0 mm 0.58 in14.7 mm
01:40 AM 77.1°F25.1°C 75.2°F24.0°C 94% Calm Calm -- 30.03 in1016.9 mb 0.01 in0.3 mm 0.00 in0.0 mm 0.58 in14.7 mm
01:30 AM 77.3°F25.2°C 75.4°F24.1°C 94% Calm Calm -- 30.04 in1017.3 mb 0.33 in8.4 mm 0.00 in0.0 mm 0.58 in14.7 mm
01:25 AM 77.5°F25.3°C 75.6°F24.2°C 94% Calm Calm -- 30.04 in1017.3 mb 0.33 in8.4 mm 0.00 in0.0 mm 0.58 in14.7 mm
01:20 AM 77.5°F25.3°C 75.6°F24.2°C 94% Calm Calm 1.0 mph1.6 kmh 30.05 in1017.6 mb 0.58 in14.7 mm 0.00 in0.0 mm 0.58 in14.7 mm
01:15 AM 77.5°F25.3°C 75.3°F24.1°C 93% Calm Calm 1.0 mph1.6 kmh 30.05 in1017.6 mb 0.58 in14.7 mm 0.00 in0.0 mm 0.58 in14.7 mm
01:10 AM 77.5°F25.3°C 75.3°F24.1°C 93% Calm Calm 4.0 mph6.4 kmh 30.05 in1017.6 mb 0.58 in14.7 mm 0.00 in0.0 mm 0.58 in14.7 mm
01:00 AM 77.3°F25.2°C 74.8°F23.8°C 92% Calm Calm 2.0 mph3.2 kmh 30.06 in1017.9 mb 0.58 in14.7 mm 0.00 in0.0 mm 0.58 in14.7 mm
12:59 AM 77.3°F25.2°C 74.8°F23.8°C 92% Calm Calm 2.0 mph3.2 kmh 30.06 in1017.9 mb 0.58 in14.7 mm 0.00 in0.0 mm 0.58 in14.7 mm
12:55 AM 77.4°F25.2°C 74.6°F23.7°C 91% Calm Calm 2.0 mph3.2 kmh 30.07 in1018.3 mb 0.58 in14.7 mm 0.00 in0.0 mm 0.58 in14.7 mm
12:50 AM 77.6°F25.3°C 74.8°F23.8°C 91% Calm Calm 3.0 mph4.8 kmh 30.07 in1018.3 mb 0.58 in14.7 mm 0.00 in0.0 mm 0.58 in14.7 mm
12:45 AM 77.8°F25.4°C 74.6°F23.7°C 90% Calm Calm -- 30.06 in1017.9 mb 0.58 in14.7 mm 0.00 in0.0 mm 0.58 in14.7 mm
12:40 AM 78.1°F25.6°C 74.6°F23.7°C 89% Calm Calm 4.0 mph6.4 kmh 30.07 in1018.3 mb 0.58 in14.7 mm 0.06 in1.5 mm 0.58 in14.7 mm
12:30 AM 79.5°F26.4°C 74.6°F23.7°C 85% 4.0 mph WSW6.4 kmh WSW 8.0 mph12.9 kmh 30.07 in1018.3 mb 0.57 in14.5 mm 1.32 in33.5 mm 0.57 in14.5 mm
12:25 AM 80.7°F27.1°C 75.4°F24.1°C 84% 2.0 mph N3.2 kmh N 8.0 mph12.9 kmh 30.07 in1018.3 mb 0.46 in11.7 mm 2.64 in67.1 mm 0.46 in11.7 mm
12:20 AM 81.6°F27.6°C 75.9°F24.4°C 83% 3.0 mph SE4.8 kmh SE 13.0 mph20.9 kmh 30.07 in1018.3 mb 0.24 in6.1 mm 2.64 in67.1 mm 0.24 in6.1 mm
12:15 AM 82.2°F27.9°C 76.9°F24.9°C 84% 10.0 mph SE16.1 kmh SE 12.0 mph19.3 kmh 30.06 in1017.9 mb 0.02 in0.5 mm 0.24 in6.1 mm 0.02 in0.5 mm
12:10 AM 82.7°F28.2°C 78.1°F25.6°C 86% 8.0 mph SSW12.9 kmh SSW 11.0 mph17.7 kmh 30.06 in1017.9 mb 0.00 in0.0 mm 0.00 in0.0 mm 0.00 in0.0 mm
12:00 AM 82.6°F28.1°C 78.0°F25.6°C 86% Calm Calm -- 30.06 in1017.9 mb 0.00 in0.0 mm 0.00 in0.0 mm 0.00 in0.0 mm